createdAt,value
2023-03-22T00:00:57.770Z,24.70
2023-03-22T00:03:25.830Z,23.00
2023-03-22T00:05:58.630Z,23.23
2023-03-22T00:08:26.508Z,22.20
2023-03-22T00:10:54.226Z,22.97
2023-03-22T00:13:22.082Z,23.23
2023-03-22T00:15:51.146Z,23.17
2023-03-22T00:18:19.357Z,26.30
2023-03-22T00:20:51.219Z,23.70
2023-03-22T00:23:19.398Z,20.77
2023-03-22T00:25:48.100Z,24.73
2023-03-22T00:28:17.090Z,23.80
2023-03-22T00:30:52.832Z,20.17
2023-03-22T00:33:20.700Z,22.43
2023-03-22T00:35:52.907Z,23.03
2023-03-22T00:38:27.213Z,23.10
2023-03-22T00:41:06.537Z,25.57
2023-03-22T00:43:34.275Z,24.47
2023-03-22T00:46:03.370Z,22.97
2023-03-22T00:48:31.236Z,25.17
2023-03-22T00:50:59.169Z,23.13
2023-03-22T00:53:29.059Z,26.73
2023-03-22T00:55:57.099Z,25.57
2023-03-22T00:58:24.836Z,26.83
2023-03-22T01:00:53.055Z,27.50
2023-03-22T01:03:22.807Z,22.00
2023-03-22T01:05:55.478Z,22.73
2023-03-22T01:08:23.563Z,23.27
2023-03-22T01:10:51.654Z,24.17
2023-03-22T01:13:19.963Z,24.87
2023-03-22T01:15:51.193Z,23.70
2023-03-22T01:18:19.342Z,24.83
2023-03-22T01:20:48.379Z,24.53
2023-03-22T01:23:16.261Z,28.90
2023-03-22T01:25:44.205Z,25.20
2023-03-22T01:28:11.927Z,25.77
2023-03-22T01:30:40.928Z,25.00
2023-03-22T01:33:09.403Z,23.77
2023-03-22T01:35:37.676Z,25.60
2023-03-22T01:38:06.732Z,23.33
2023-03-22T01:40:35.015Z,23.57
2023-03-22T01:43:03.112Z,24.37
2023-03-22T01:45:37.101Z,22.80
2023-03-22T01:48:10.968Z,25.07
2023-03-22T01:50:42.559Z,27.07
2023-03-22T01:53:13.742Z,24.33
2023-03-22T01:55:42.736Z,25.23
2023-03-22T01:58:10.845Z,23.50
2023-03-22T02:00:38.833Z,22.03
2023-03-22T02:03:07.794Z,23.60
2023-03-22T02:05:37.570Z,24.70
2023-03-22T02:08:06.503Z,22.23
2023-03-22T02:10:35.699Z,22.97
2023-03-22T02:13:17.777Z,21.27
2023-03-22T02:15:49.934Z,22.77
2023-03-22T02:18:29.882Z,24.80
2023-03-22T02:21:27.987Z,23.03
2023-03-22T02:24:24.782Z,31.87
2023-03-22T02:27:24.549Z,29.10
2023-03-22T02:30:01.774Z,30.50
2023-03-22T02:33:02.330Z,28.67
2023-03-22T02:35:53.095Z,28.20
2023-03-22T02:38:57.670Z,26.03
2023-03-22T02:41:37.105Z,25.97
2023-03-22T02:44:09.947Z,23.30
2023-03-22T02:46:45.940Z,28.73
2023-03-22T02:49:19.381Z,27.07
2023-03-22T02:51:50.170Z,28.40
2023-03-22T02:54:21.701Z,25.53
2023-03-22T02:56:57.688Z,23.53
2023-03-22T02:59:27.733Z,27.80
2023-03-22T03:01:58.666Z,26.30
2023-03-22T03:04:31.695Z,26.07
2023-03-22T03:07:04.926Z,23.90
2023-03-22T03:09:34.053Z,27.13
2023-03-22T03:12:03.219Z,27.10
2023-03-22T03:14:32.736Z,31.00
2023-03-22T03:17:11.894Z,33.87
2023-03-22T03:19:46.317Z,30.07
2023-03-22T03:38:02.398Z,27.33
2023-03-22T03:40:31.999Z,27.63
2023-03-22T03:43:03.401Z,31.57
2023-03-22T03:45:31.785Z,32.83
2023-03-22T03:48:02.540Z,31.40
2023-03-22T03:50:30.712Z,32.83
2023-03-22T03:52:58.939Z,36.83
2023-03-22T03:55:30.179Z,34.37
2023-03-22T03:57:58.230Z,32.37
2023-03-22T04:00:26.080Z,33.50
2023-03-22T04:02:53.776Z,31.53
2023-03-22T04:05:21.540Z,29.10
2023-03-22T04:07:49.263Z,28.70
2023-03-22T04:10:17.121Z,30.27
2023-03-22T04:12:46.166Z,31.57
2023-03-22T04:15:14.072Z,28.33
2023-03-22T04:17:41.882Z,28.70
2023-03-22T04:20:12.959Z,32.10
2023-03-22T04:22:41.885Z,29.27
2023-03-22T04:25:12.123Z,30.77
2023-03-22T04:27:41.124Z,33.77
2023-03-22T04:30:12.633Z,32.10
2023-03-22T04:32:40.444Z,27.90
2023-03-22T04:35:08.656Z,33.07
2023-03-22T04:37:36.469Z,30.47
2023-03-22T04:40:07.825Z,35.57
2023-03-22T04:42:36.015Z,28.17
2023-03-22T04:45:04.595Z,27.77
2023-03-22T04:47:33.760Z,29.20
2023-03-22T04:50:01.570Z,26.63
2023-03-22T04:52:29.320Z,29.60
2023-03-22T04:54:57.023Z,29.03
2023-03-22T04:57:24.973Z,26.87
2023-03-22T04:59:52.746Z,30.13
2023-03-22T05:02:20.512Z,29.67
2023-03-22T05:04:49.680Z,25.07
2023-03-22T05:07:17.395Z,28.50
2023-03-22T05:09:45.120Z,28.20
2023-03-22T05:12:12.991Z,24.97
2023-03-22T05:14:40.760Z,23.50
2023-03-22T05:17:08.468Z,28.63
2023-03-22T05:19:36.456Z,29.23
2023-03-22T05:22:05.519Z,31.40
2023-03-22T05:24:33.261Z,24.53
2023-03-22T05:27:03.676Z,22.03
2023-03-22T05:29:37.069Z,27.50
2023-03-22T05:32:05.049Z,25.33
2023-03-22T05:34:35.988Z,27.37
2023-03-22T05:37:05.216Z,25.77
2023-03-22T05:39:33.352Z,24.07
2023-03-22T05:42:01.241Z,23.37
2023-03-22T05:44:29.131Z,21.40
2023-03-22T05:46:56.915Z,24.30
2023-03-22T05:49:24.743Z,24.07
2023-03-22T05:51:52.508Z,19.10
2023-03-22T05:54:21.559Z,21.40
2023-03-22T05:56:49.282Z,23.23
2023-03-22T05:59:17.053Z,22.13
2023-03-22T06:01:44.931Z,21.10
2023-03-22T06:04:12.697Z,22.63
2023-03-22T06:06:41.858Z,22.33
2023-03-22T06:09:16.810Z,23.47
2023-03-22T06:11:46.832Z,23.40
2023-03-22T06:14:14.580Z,20.07
2023-03-22T06:16:42.330Z,19.00
2023-03-22T06:19:10.079Z,21.10
2023-03-22T06:21:37.817Z,17.93
2023-03-22T06:24:06.999Z,20.30
2023-03-22T06:26:34.800Z,18.97
2023-03-22T06:29:04.031Z,20.33
2023-03-22T06:31:31.772Z,17.77
2023-03-22T06:33:59.621Z,16.77
2023-03-22T06:36:27.432Z,19.10
2023-03-22T06:38:55.313Z,18.47
2023-03-22T06:41:23.108Z,17.33
2023-03-22T06:43:50.873Z,19.37
2023-03-22T06:46:19.968Z,16.83
2023-03-22T06:48:47.743Z,16.83
2023-03-22T06:51:15.518Z,19.60
2023-03-22T06:53:43.232Z,19.83
2023-03-22T06:56:11.203Z,17.33
2023-03-22T06:58:39.030Z,15.47
2023-03-22T07:01:06.866Z,16.20
2023-03-22T07:03:35.892Z,15.33
2023-03-22T07:06:03.850Z,16.90
2023-03-22T07:08:31.729Z,16.63
2023-03-22T07:10:59.529Z,16.67
2023-03-22T07:13:27.866Z,16.20
2023-03-22T07:15:57.402Z,15.50
2023-03-22T07:18:26.024Z,13.77
2023-03-22T07:20:55.256Z,15.37
2023-03-22T07:23:23.232Z,17.90
2023-03-22T07:25:52.051Z,11.97
2023-03-22T07:28:19.835Z,12.80
2023-03-22T07:30:47.737Z,14.00
2023-03-22T07:33:15.533Z,13.23
2023-03-22T07:35:43.275Z,11.23
2023-03-22T07:38:13.073Z,11.63
2023-03-22T07:40:40.972Z,13.20
2023-03-22T07:43:12.017Z,12.43
2023-03-22T07:45:40.883Z,11.03
2023-03-22T07:48:11.240Z,10.20
2023-03-22T07:50:39.332Z,11.93
2023-03-22T07:53:07.411Z,11.43
2023-03-22T07:55:36.590Z,11.70
2023-03-22T07:58:04.429Z,10.50
2023-03-22T08:00:32.282Z,10.33
2023-03-22T08:03:00.066Z,10.77
2023-03-22T08:05:27.937Z,9.60
2023-03-22T08:07:56.855Z,12.70
2023-03-22T08:10:24.795Z,12.70
2023-03-22T08:12:53.862Z,9.80
2023-03-22T08:15:22.691Z,13.10
2023-03-22T08:17:50.773Z,9.95
2023-03-22T08:20:19.747Z,10.10
2023-03-22T08:22:47.484Z,15.03
2023-03-22T08:25:15.356Z,10.37
2023-03-22T08:27:43.101Z,9.23
2023-03-22T08:30:13.565Z,10.48
2023-03-22T08:32:41.321Z,10.40
2023-03-22T08:35:10.369Z,11.55
2023-03-22T08:37:38.190Z,11.40
2023-03-22T08:40:08.902Z,9.68
2023-03-22T08:42:36.850Z,9.23
2023-03-22T08:45:05.021Z,11.48
2023-03-22T08:47:34.134Z,12.02
2023-03-22T08:50:01.844Z,11.48
2023-03-22T08:52:29.638Z,8.95
2023-03-22T08:54:57.361Z,9.70
2023-03-22T08:57:27.628Z,10.15
2023-03-22T08:59:56.749Z,11.05
2023-03-22T09:02:25.141Z,8.40
2023-03-22T09:04:54.446Z,8.40
2023-03-22T09:07:22.522Z,8.43
2023-03-22T09:09:50.391Z,13.90
2023-03-22T09:12:18.309Z,8.57
2023-03-22T09:14:48.098Z,8.40
2023-03-22T09:17:15.828Z,7.47
2023-03-22T09:19:43.681Z,10.25
2023-03-22T09:22:12.753Z,9.98
2023-03-22T09:24:40.812Z,8.55
2023-03-22T09:27:08.611Z,7.07
2023-03-22T09:29:36.484Z,8.43
2023-03-22T09:32:04.327Z,8.75
2023-03-22T09:34:32.115Z,9.00
2023-03-22T09:37:02.409Z,7.53
2023-03-22T09:39:31.531Z,8.32
2023-03-22T09:42:03.321Z,8.85
2023-03-22T09:44:35.433Z,7.82
2023-03-22T09:47:06.325Z,8.57
2023-03-22T09:49:52.667Z,6.80
2023-03-22T09:52:21.587Z,9.35
2023-03-22T09:54:52.896Z,9.63
2023-03-22T09:57:26.174Z,9.77
2023-03-22T09:59:59.399Z,10.68
2023-03-22T10:02:40.960Z,9.80
2023-03-22T10:05:19.408Z,7.53
2023-03-22T10:08:06.402Z,7.97
2023-03-22T10:10:35.607Z,11.23
2023-03-22T10:13:08.082Z,9.85
2023-03-22T10:15:39.240Z,7.53
2023-03-22T10:18:09.825Z,7.32
2023-03-22T10:20:43.413Z,8.25
2023-03-22T10:23:16.911Z,7.57
2023-03-22T10:25:46.966Z,6.82
2023-03-22T10:28:19.227Z,9.02
2023-03-22T10:30:53.285Z,9.02
2023-03-22T10:33:29.006Z,7.95
2023-03-22T10:35:57.877Z,6.63
2023-03-22T10:38:28.686Z,8.48
2023-03-22T10:41:00.910Z,6.85
2023-03-22T10:43:32.742Z,7.75
2023-03-22T10:46:03.537Z,8.75
2023-03-22T10:48:34.054Z,8.35
2023-03-22T10:51:03.344Z,6.70
2023-03-22T10:53:38.446Z,8.52
2023-03-22T10:56:13.408Z,6.22
2023-03-22T10:58:41.154Z,5.93
2023-03-22T11:01:10.963Z,5.68
2023-03-22T11:03:41.954Z,8.05
2023-03-22T11:06:12.456Z,5.93
2023-03-22T11:08:42.802Z,7.93
2023-03-22T11:11:19.061Z,8.30
2023-03-22T11:13:52.666Z,5.93
2023-03-22T11:16:21.504Z,6.85
2023-03-22T11:18:49.394Z,7.20
2023-03-22T11:21:19.231Z,6.50
2023-03-22T11:23:55.069Z,7.75
2023-03-22T11:26:30.527Z,6.78
2023-03-22T11:29:05.559Z,6.85
2023-03-22T11:31:56.350Z,7.78
2023-03-22T11:34:27.584Z,6.75
2023-03-22T11:36:57.503Z,6.72
2023-03-22T11:39:28.349Z,6.55
2023-03-22T11:42:01.529Z,8.25
2023-03-22T11:44:34.852Z,10.18
2023-03-22T11:47:05.274Z,7.57
2023-03-22T11:49:41.169Z,7.78
2023-03-22T11:52:12.147Z,5.57
2023-03-22T11:54:42.364Z,7.30
2023-03-22T11:57:16.836Z,6.82
2023-03-22T11:59:50.465Z,5.90
2023-03-22T12:02:24.544Z,6.53
2023-03-22T12:05:00.639Z,6.45
2023-03-22T12:07:31.250Z,7.50
2023-03-22T12:10:04.223Z,8.27
2023-03-22T12:12:37.800Z,10.43
2023-03-22T12:15:09.316Z,8.32
2023-03-22T12:17:43.964Z,7.10
2023-03-22T12:20:20.697Z,8.80
2023-03-22T12:22:52.996Z,6.05
2023-03-22T12:25:24.262Z,17.40
2023-03-22T12:27:56.121Z,6.93
2023-03-22T12:30:26.516Z,8.65
2023-03-22T12:32:59.739Z,11.25
2023-03-22T12:35:30.291Z,8.40
2023-03-22T12:38:01.698Z,9.90
2023-03-22T12:40:34.905Z,5.00
2023-03-22T12:43:11.541Z,6.00
2023-03-22T12:45:42.429Z,4.90
2023-03-22T12:48:16.043Z,5.90
2023-03-22T12:50:48.018Z,5.25
2023-03-22T12:53:18.626Z,4.28
2023-03-22T12:55:48.234Z,8.85
2023-03-22T12:58:21.667Z,6.20
2023-03-22T13:00:53.707Z,4.70
2023-03-22T13:03:27.369Z,4.82
2023-03-22T13:06:04.563Z,5.45
2023-03-22T13:09:16.163Z,6.68
2023-03-22T13:11:45.659Z,3.92
2023-03-22T13:14:56.121Z,5.15
2023-03-22T13:17:43.586Z,5.03
2023-03-22T13:20:28.779Z,4.93
2023-03-22T13:23:18.783Z,5.28
2023-03-22T13:26:02.253Z,3.67
2023-03-22T13:28:36.966Z,4.85
2023-03-22T13:31:07.442Z,6.07
2023-03-22T13:33:37.653Z,4.10
2023-03-22T13:36:09.035Z,6.85
2023-03-22T13:38:42.361Z,3.83
2023-03-22T13:41:21.961Z,4.25
2023-03-22T13:43:51.838Z,3.75
2023-03-22T13:46:50.338Z,5.05
2023-03-22T13:49:39.690Z,3.08
2023-03-22T13:52:09.477Z,3.28
2023-03-22T13:54:42.152Z,4.57
2023-03-22T13:57:18.231Z,5.13
2023-03-22T14:00:12.164Z,4.78
2023-03-22T14:02:43.931Z,6.45
2023-03-22T14:05:16.807Z,8.25
2023-03-22T14:07:48.043Z,8.23
2023-03-22T14:10:20.630Z,4.90
2023-03-22T14:12:52.500Z,5.90
2023-03-22T14:15:24.352Z,6.43
2023-03-22T14:17:57.645Z,4.78
2023-03-22T14:20:28.037Z,7.70
